sensor_id;sensor_type;location;lat;lon;timestamp;P1;durP1;ratioP1;P2;durP2;ratioP2
6249;SDS011;3158;52.148;11.568;2022-11-15T00:03:25;11.75;;;8.13;;
6249;SDS011;3158;52.148;11.568;2022-11-15T00:08:45;9.95;;;7.18;;
6249;SDS011;3158;52.148;11.568;2022-11-15T00:14:05;12.90;;;7.97;;
6249;SDS011;3158;52.148;11.568;2022-11-15T00:19:25;14.15;;;7.88;;
6249;SDS011;3158;52.148;11.568;2022-11-15T00:24:44;12.50;;;8.10;;
6249;SDS011;3158;52.148;11.568;2022-11-15T00:30:04;14.45;;;8.10;;
6249;SDS011;3158;52.148;11.568;2022-11-15T00:35:24;13.27;;;7.50;;
6249;SDS011;3158;52.148;11.568;2022-11-15T00:40:45;11.98;;;7.93;;
6249;SDS011;3158;52.148;11.568;2022-11-15T00:46:05;13.77;;;8.23;;
6249;SDS011;3158;52.148;11.568;2022-11-15T00:51:27;10.65;;;7.70;;
6249;SDS011;3158;52.148;11.568;2022-11-15T00:56:47;14.27;;;8.48;;
6249;SDS011;3158;52.148;11.568;2022-11-15T01:02:07;10.18;;;6.75;;
6249;SDS011;3158;52.148;11.568;2022-11-15T01:07:27;14.18;;;8.10;;
6249;SDS011;3158;52.148;11.568;2022-11-15T01:12:47;12.98;;;6.75;;
6249;SDS011;3158;52.148;11.568;2022-11-15T01:18:07;14.57;;;7.45;;
6249;SDS011;3158;52.148;11.568;2022-11-15T01:23:27;14.48;;;7.80;;
6249;SDS011;3158;52.148;11.568;2022-11-15T01:28:47;13.23;;;8.02;;
6249;SDS011;3158;52.148;11.568;2022-11-15T01:34:06;18.00;;;7.63;;
6249;SDS011;3158;52.148;11.568;2022-11-15T01:39:26;14.02;;;7.97;;
6249;SDS011;3158;52.148;11.568;2022-11-15T01:44:49;12.52;;;7.78;;
6249;SDS011;3158;52.148;11.568;2022-11-15T01:50:10;14.10;;;8.40;;
6249;SDS011;3158;52.148;11.568;2022-11-15T01:55:30;12.35;;;7.30;;
6249;SDS011;3158;52.148;11.568;2022-11-15T02:00:50;10.65;;;7.57;;
6249;SDS011;3158;52.148;11.568;2022-11-15T02:06:11;11.07;;;7.50;;
6249;SDS011;3158;52.148;11.568;2022-11-15T02:11:31;11.52;;;6.88;;
6249;SDS011;3158;52.148;11.568;2022-11-15T02:44:40;13.90;;;7.65;;
6249;SDS011;3158;52.148;11.568;2022-11-15T02:50:13;7.93;;;6.32;;
6249;SDS011;3158;52.148;11.568;2022-11-15T02:55:35;13.63;;;6.90;;
6249;SDS011;3158;52.148;11.568;2022-11-15T03:01:06;13.20;;;6.90;;
6249;SDS011;3158;52.148;11.568;2022-11-15T03:11:47;14.15;;;7.72;;
6249;SDS011;3158;52.148;11.568;2022-11-15T03:17:42;13.38;;;8.20;;
6249;SDS011;3158;52.148;11.568;2022-11-15T03:22:54;10.82;;;7.53;;
6249;SDS011;3158;52.148;11.568;2022-11-15T03:28:22;10.85;;;6.75;;
6249;SDS011;3158;52.148;11.568;2022-11-15T03:33:43;11.07;;;7.28;;
6249;SDS011;3158;52.148;11.568;2022-11-15T03:39:05;11.90;;;7.13;;
6249;SDS011;3158;52.148;11.568;2022-11-15T03:49:57;13.40;;;7.20;;
6249;SDS011;3158;52.148;11.568;2022-11-15T03:55:18;11.38;;;6.47;;
6249;SDS011;3158;52.148;11.568;2022-11-15T04:00:38;11.48;;;6.65;;
6249;SDS011;3158;52.148;11.568;2022-11-15T04:05:58;12.60;;;6.82;;
6249;SDS011;3158;52.148;11.568;2022-11-15T04:11:18;14.85;;;8.10;;
6249;SDS011;3158;52.148;11.568;2022-11-15T04:16:37;10.57;;;6.70;;
6249;SDS011;3158;52.148;11.568;2022-11-15T04:21:57;13.75;;;7.43;;
6249;SDS011;3158;52.148;11.568;2022-11-15T04:27:36;7.50;;;5.57;;
6249;SDS011;3158;52.148;11.568;2022-11-15T04:32:56;13.80;;;7.38;;
6249;SDS011;3158;52.148;11.568;2022-11-15T04:38:16;10.02;;;7.45;;
6249;SDS011;3158;52.148;11.568;2022-11-15T04:43:36;13.88;;;6.28;;
6249;SDS011;3158;52.148;11.568;2022-11-15T04:48:56;14.50;;;7.95;;
6249;SDS011;3158;52.148;11.568;2022-11-15T04:54:15;9.73;;;7.18;;
6249;SDS011;3158;52.148;11.568;2022-11-15T04:59:36;11.98;;;7.47;;
6249;SDS011;3158;52.148;11.568;2022-11-15T05:04:55;8.55;;;5.97;;
6249;SDS011;3158;52.148;11.568;2022-11-15T05:10:15;11.40;;;6.32;;
6249;SDS011;3158;52.148;11.568;2022-11-15T05:15:35;9.13;;;6.70;;
6249;SDS011;3158;52.148;11.568;2022-11-15T05:20:55;11.55;;;7.90;;
6249;SDS011;3158;52.148;11.568;2022-11-15T05:26:15;12.32;;;7.65;;
6249;SDS011;3158;52.148;11.568;2022-11-15T05:31:38;7.35;;;5.95;;
6249;SDS011;3158;52.148;11.568;2022-11-15T05:36:58;12.30;;;6.95;;
6249;SDS011;3158;52.148;11.568;2022-11-15T05:42:18;10.13;;;6.90;;
6249;SDS011;3158;52.148;11.568;2022-11-15T05:47:38;7.57;;;6.38;;
6249;SDS011;3158;52.148;11.568;2022-11-15T05:52:58;10.43;;;6.63;;
6249;SDS011;3158;52.148;11.568;2022-11-15T05:58:18;12.02;;;6.93;;
6249;SDS011;3158;52.148;11.568;2022-11-15T06:03:38;9.40;;;5.90;;
6249;SDS011;3158;52.148;11.568;2022-11-15T06:08:58;10.13;;;6.53;;
6249;SDS011;3158;52.148;11.568;2022-11-15T06:14:17;7.70;;;5.95;;
6249;SDS011;3158;52.148;11.568;2022-11-15T06:19:37;10.60;;;6.50;;
6249;SDS011;3158;52.148;11.568;2022-11-15T06:24:57;7.72;;;5.90;;
6249;SDS011;3158;52.148;11.568;2022-11-15T06:30:17;13.50;;;6.18;;
6249;SDS011;3158;52.148;11.568;2022-11-15T06:35:37;9.40;;;6.18;;
6249;SDS011;3158;52.148;11.568;2022-11-15T06:41:03;8.02;;;5.90;;
6249;SDS011;3158;52.148;11.568;2022-11-15T06:46:23;6.88;;;5.40;;
6249;SDS011;3158;52.148;11.568;2022-11-15T06:51:43;9.32;;;5.88;;
6249;SDS011;3158;52.148;11.568;2022-11-15T06:57:03;8.50;;;5.25;;
6249;SDS011;3158;52.148;11.568;2022-11-15T07:02:23;10.15;;;6.13;;
6249;SDS011;3158;52.148;11.568;2022-11-15T07:07:43;7.32;;;5.85;;
6249;SDS011;3158;52.148;11.568;2022-11-15T07:13:02;13.32;;;6.45;;
6249;SDS011;3158;52.148;11.568;2022-11-15T07:18:22;10.43;;;5.72;;
6249;SDS011;3158;52.148;11.568;2022-11-15T07:23:42;6.32;;;5.57;;
6249;SDS011;3158;52.148;11.568;2022-11-15T07:29:02;8.40;;;5.78;;
6249;SDS011;3158;52.148;11.568;2022-11-15T07:34:22;8.38;;;6.18;;
6249;SDS011;3158;52.148;11.568;2022-11-15T07:39:43;10.40;;;7.03;;
6249;SDS011;3158;52.148;11.568;2022-11-15T07:45:03;18.20;;;6.95;;
6249;SDS011;3158;52.148;11.568;2022-11-15T07:50:23;8.80;;;6.60;;
6249;SDS011;3158;52.148;11.568;2022-11-15T07:55:43;13.57;;;6.57;;
6249;SDS011;3158;52.148;11.568;2022-11-15T08:01:03;11.80;;;6.80;;
6249;SDS011;3158;52.148;11.568;2022-11-15T08:06:23;11.43;;;6.95;;
6249;SDS011;3158;52.148;11.568;2022-11-15T08:11:43;14.77;;;7.55;;
6249;SDS011;3158;52.148;11.568;2022-11-15T08:17:03;13.98;;;7.60;;
6249;SDS011;3158;52.148;11.568;2022-11-15T08:22:23;8.82;;;6.95;;
6249;SDS011;3158;52.148;11.568;2022-11-15T08:27:43;13.90;;;7.07;;
6249;SDS011;3158;52.148;11.568;2022-11-15T08:33:03;8.73;;;6.68;;
6249;SDS011;3158;52.148;11.568;2022-11-15T08:38:23;8.20;;;5.93;;
6249;SDS011;3158;52.148;11.568;2022-11-15T08:43:43;12.15;;;7.40;;
6249;SDS011;3158;52.148;11.568;2022-11-15T08:49:02;11.98;;;6.90;;
6249;SDS011;3158;52.148;11.568;2022-11-15T08:54:22;9.65;;;6.75;;
6249;SDS011;3158;52.148;11.568;2022-11-15T08:59:42;9.20;;;6.25;;
6249;SDS011;3158;52.148;11.568;2022-11-15T09:05:01;9.73;;;6.43;;
6249;SDS011;3158;52.148;11.568;2022-11-15T09:10:22;10.02;;;5.80;;
6249;SDS011;3158;52.148;11.568;2022-11-15T09:15:43;9.73;;;5.60;;
6249;SDS011;3158;52.148;11.568;2022-11-15T09:21:03;10.73;;;5.90;;
6249;SDS011;3158;52.148;11.568;2022-11-15T09:26:22;8.70;;;5.32;;
6249;SDS011;3158;52.148;11.568;2022-11-15T09:31:42;7.13;;;4.88;;
6249;SDS011;3158;52.148;11.568;2022-11-15T09:37:02;5.47;;;4.57;;
6249;SDS011;3158;52.148;11.568;2022-11-15T09:42:27;8.00;;;4.80;;
6249;SDS011;3158;52.148;11.568;2022-11-15T09:47:55;7.85;;;3.85;;
6249;SDS011;3158;52.148;11.568;2022-11-15T09:53:31;5.75;;;5.20;;
6249;SDS011;3158;52.148;11.568;2022-11-15T09:58:49;5.30;;;4.72;;
6249;SDS011;3158;52.148;11.568;2022-11-15T10:03:55;6.68;;;4.80;;
6249;SDS011;3158;52.148;11.568;2022-11-15T10:09:01;4.32;;;3.78;;
6249;SDS011;3158;52.148;11.568;2022-11-15T10:24:19;7.03;;;4.07;;
6249;SDS011;3158;52.148;11.568;2022-11-15T10:29:21;4.05;;;3.75;;
6249;SDS011;3158;52.148;11.568;2022-11-15T10:34:23;7.40;;;4.05;;
6249;SDS011;3158;52.148;11.568;2022-11-15T10:39:25;4.45;;;4.05;;
6249;SDS011;3158;52.148;11.568;2022-11-15T10:44:30;6.82;;;5.38;;
6249;SDS011;3158;52.148;11.568;2022-11-15T10:49:32;5.25;;;4.85;;
6249;SDS011;3158;52.148;11.568;2022-11-15T10:54:35;4.63;;;4.32;;
6249;SDS011;3158;52.148;11.568;2022-11-15T10:59:37;4.78;;;4.25;;
6249;SDS011;3158;52.148;11.568;2022-11-15T11:04:51;5.13;;;4.65;;
6249;SDS011;3158;52.148;11.568;2022-11-15T11:10:13;4.20;;;3.85;;
6249;SDS011;3158;52.148;11.568;2022-11-15T11:15:17;3.55;;;3.13;;
6249;SDS011;3158;52.148;11.568;2022-11-15T11:20:26;3.67;;;3.28;;
6249;SDS011;3158;52.148;11.568;2022-11-15T11:25:38;3.85;;;3.35;;
6249;SDS011;3158;52.148;11.568;2022-11-15T11:30:43;4.95;;;3.00;;
6249;SDS011;3158;52.148;11.568;2022-11-15T11:56:56;7.38;;;3.60;;
6249;SDS011;3158;52.148;11.568;2022-11-15T12:02:01;6.10;;;4.32;;
6249;SDS011;3158;52.148;11.568;2022-11-15T12:07:11;4.65;;;4.07;;
6249;SDS011;3158;52.148;11.568;2022-11-15T12:12:16;4.72;;;4.38;;
6249;SDS011;3158;52.148;11.568;2022-11-15T12:17:19;3.13;;;2.92;;
6249;SDS011;3158;52.148;11.568;2022-11-15T12:22:23;4.43;;;3.50;;
6249;SDS011;3158;52.148;11.568;2022-11-15T12:27:38;4.80;;;4.32;;
6249;SDS011;3158;52.148;11.568;2022-11-15T12:33:00;3.92;;;3.50;;
6249;SDS011;3158;52.148;11.568;2022-11-15T12:38:01;3.10;;;2.90;;
6249;SDS011;3158;52.148;11.568;2022-11-15T12:43:05;3.28;;;3.08;;
6249;SDS011;3158;52.148;11.568;2022-11-15T12:58:27;4.10;;;2.88;;
6249;SDS011;3158;52.148;11.568;2022-11-15T13:03:34;3.97;;;3.60;;
6249;SDS011;3158;52.148;11.568;2022-11-15T13:08:39;3.30;;;3.10;;
6249;SDS011;3158;52.148;11.568;2022-11-15T13:13:44;3.22;;;2.90;;
6249;SDS011;3158;52.148;11.568;2022-11-15T13:18:52;4.00;;;2.85;;
6249;SDS011;3158;52.148;11.568;2022-11-15T13:23:54;5.40;;;3.45;;
6249;SDS011;3158;52.148;11.568;2022-11-15T13:28:55;3.45;;;3.15;;
6249;SDS011;3158;52.148;11.568;2022-11-15T13:33:59;2.67;;;2.55;;
6249;SDS011;3158;52.148;11.568;2022-11-15T13:39:05;4.13;;;2.95;;
6249;SDS011;3158;52.148;11.568;2022-11-15T13:44:18;3.90;;;3.55;;
6249;SDS011;3158;52.148;11.568;2022-11-15T13:49:20;3.53;;;3.10;;
6249;SDS011;3158;52.148;11.568;2022-11-15T13:59:43;4.45;;;2.72;;
6249;SDS011;3158;52.148;11.568;2022-11-15T14:04:46;2.85;;;2.70;;
6249;SDS011;3158;52.148;11.568;2022-11-15T14:09:47;3.22;;;3.05;;
6249;SDS011;3158;52.148;11.568;2022-11-15T14:14:49;4.05;;;3.03;;
6249;SDS011;3158;52.148;11.568;2022-11-15T14:19:50;5.75;;;2.90;;
6249;SDS011;3158;52.148;11.568;2022-11-15T14:25:13;6.13;;;3.30;;
6249;SDS011;3158;52.148;11.568;2022-11-15T14:30:16;3.28;;;2.80;;
6249;SDS011;3158;52.148;11.568;2022-11-15T14:35:18;4.57;;;2.53;;
6249;SDS011;3158;52.148;11.568;2022-11-15T14:40:20;3.03;;;2.80;;
6249;SDS011;3158;52.148;11.568;2022-11-15T14:45:22;7.72;;;2.70;;
6249;SDS011;3158;52.148;11.568;2022-11-15T14:50:23;4.18;;;2.97;;
6249;SDS011;3158;52.148;11.568;2022-11-15T14:55:28;3.05;;;2.67;;
6249;SDS011;3158;52.148;11.568;2022-11-15T15:00:31;4.20;;;2.60;;
6249;SDS011;3158;52.148;11.568;2022-11-15T15:10:37;2.88;;;2.70;;
6249;SDS011;3158;52.148;11.568;2022-11-15T15:15:39;3.90;;;2.58;;
6249;SDS011;3158;52.148;11.568;2022-11-15T15:20:40;2.47;;;2.38;;
6249;SDS011;3158;52.148;11.568;2022-11-15T15:25:42;2.83;;;2.63;;
6249;SDS011;3158;52.148;11.568;2022-11-15T15:30:45;2.72;;;2.47;;
6249;SDS011;3158;52.148;11.568;2022-11-15T15:35:46;2.67;;;2.45;;
6249;SDS011;3158;52.148;11.568;2022-11-15T15:40:47;2.67;;;2.47;;
6249;SDS011;3158;52.148;11.568;2022-11-15T15:45:50;3.28;;;2.58;;
6249;SDS011;3158;52.148;11.568;2022-11-15T15:50:51;2.55;;;2.45;;
6249;SDS011;3158;52.148;11.568;2022-11-15T15:55:52;3.00;;;2.80;;
6249;SDS011;3158;52.148;11.568;2022-11-15T16:00:53;2.25;;;2.15;;
6249;SDS011;3158;52.148;11.568;2022-11-15T16:05:54;3.25;;;2.60;;
6249;SDS011;3158;52.148;11.568;2022-11-15T16:10:56;2.88;;;2.78;;
6249;SDS011;3158;52.148;11.568;2022-11-15T16:15:57;5.57;;;3.28;;
6249;SDS011;3158;52.148;11.568;2022-11-15T16:20:58;3.28;;;2.78;;
6249;SDS011;3158;52.148;11.568;2022-11-15T16:26:00;4.70;;;3.50;;
6249;SDS011;3158;52.148;11.568;2022-11-15T16:36:05;3.55;;;3.25;;
6249;SDS011;3158;52.148;11.568;2022-11-15T16:41:07;2.85;;;2.75;;
6249;SDS011;3158;52.148;11.568;2022-11-15T16:46:18;3.47;;;3.17;;
6249;SDS011;3158;52.148;11.568;2022-11-15T16:51:19;3.47;;;3.30;;
6249;SDS011;3158;52.148;11.568;2022-11-15T16:56:28;4.70;;;4.38;;
6249;SDS011;3158;52.148;11.568;2022-11-15T17:01:30;3.65;;;3.45;;
6249;SDS011;3158;52.148;11.568;2022-11-15T17:06:32;3.70;;;3.50;;
6249;SDS011;3158;52.148;11.568;2022-11-15T17:11:33;4.93;;;3.70;;
6249;SDS011;3158;52.148;11.568;2022-11-15T17:16:35;4.88;;;4.20;;
6249;SDS011;3158;52.148;11.568;2022-11-15T17:21:37;3.97;;;3.63;;
6249;SDS011;3158;52.148;11.568;2022-11-15T17:26:38;4.47;;;3.70;;
6249;SDS011;3158;52.148;11.568;2022-11-15T17:31:40;5.32;;;4.88;;
6249;SDS011;3158;52.148;11.568;2022-11-15T17:36:41;7.15;;;4.85;;
6249;SDS011;3158;52.148;11.568;2022-11-15T17:41:42;5.00;;;4.60;;
6249;SDS011;3158;52.148;11.568;2022-11-15T17:46:43;7.78;;;5.70;;
6249;SDS011;3158;52.148;11.568;2022-11-15T17:51:44;7.75;;;5.75;;
6249;SDS011;3158;52.148;11.568;2022-11-15T17:56:46;14.50;;;6.65;;
6249;SDS011;3158;52.148;11.568;2022-11-15T18:01:47;5.93;;;5.32;;
6249;SDS011;3158;52.148;11.568;2022-11-15T18:06:48;7.68;;;5.32;;
6249;SDS011;3158;52.148;11.568;2022-11-15T18:11:49;6.00;;;5.18;;
6249;SDS011;3158;52.148;11.568;2022-11-15T18:16:50;7.63;;;6.20;;
6249;SDS011;3158;52.148;11.568;2022-11-15T18:21:54;7.82;;;5.97;;
6249;SDS011;3158;52.148;11.568;2022-11-15T18:26:55;8.88;;;6.38;;
6249;SDS011;3158;52.148;11.568;2022-11-15T18:31:56;7.30;;;5.88;;
6249;SDS011;3158;52.148;11.568;2022-11-15T18:36:59;6.65;;;6.00;;
6249;SDS011;3158;52.148;11.568;2022-11-15T18:42:00;9.10;;;5.38;;
6249;SDS011;3158;52.148;11.568;2022-11-15T18:47:02;4.85;;;4.45;;
6249;SDS011;3158;52.148;11.568;2022-11-15T18:52:04;5.95;;;5.20;;
6249;SDS011;3158;52.148;11.568;2022-11-15T18:57:05;6.20;;;5.15;;
6249;SDS011;3158;52.148;11.568;2022-11-15T19:02:08;5.70;;;5.20;;
6249;SDS011;3158;52.148;11.568;2022-11-15T19:07:10;7.05;;;6.35;;
6249;SDS011;3158;52.148;11.568;2022-11-15T19:12:11;8.25;;;6.43;;
6249;SDS011;3158;52.148;11.568;2022-11-15T19:17:12;6.28;;;5.68;;
6249;SDS011;3158;52.148;11.568;2022-11-15T19:22:13;10.77;;;6.78;;
6249;SDS011;3158;52.148;11.568;2022-11-15T19:27:14;11.00;;;8.48;;
6249;SDS011;3158;52.148;11.568;2022-11-15T19:32:15;8.50;;;6.57;;
6249;SDS011;3158;52.148;11.568;2022-11-15T19:37:16;9.82;;;6.55;;
6249;SDS011;3158;52.148;11.568;2022-11-15T19:42:18;8.32;;;6.55;;
6249;SDS011;3158;52.148;11.568;2022-11-15T19:47:19;7.13;;;6.05;;
6249;SDS011;3158;52.148;11.568;2022-11-15T19:52:20;8.15;;;6.55;;
6249;SDS011;3158;52.148;11.568;2022-11-15T19:57:23;8.90;;;7.63;;
6249;SDS011;3158;52.148;11.568;2022-11-15T20:02:24;10.30;;;7.20;;
6249;SDS011;3158;52.148;11.568;2022-11-15T20:07:26;11.27;;;7.55;;
6249;SDS011;3158;52.148;11.568;2022-11-15T20:12:27;8.38;;;6.18;;
6249;SDS011;3158;52.148;11.568;2022-11-15T20:17:28;8.35;;;6.82;;
6249;SDS011;3158;52.148;11.568;2022-11-15T20:22:29;10.32;;;7.15;;
6249;SDS011;3158;52.148;11.568;2022-11-15T20:27:30;11.95;;;7.90;;
6249;SDS011;3158;52.148;11.568;2022-11-15T20:32:31;10.50;;;7.30;;
6249;SDS011;3158;52.148;11.568;2022-11-15T20:37:33;11.55;;;7.50;;
6249;SDS011;3158;52.148;11.568;2022-11-15T20:42:34;14.15;;;8.23;;
6249;SDS011;3158;52.148;11.568;2022-11-15T20:47:35;14.10;;;8.80;;
6249;SDS011;3158;52.148;11.568;2022-11-15T20:52:36;12.48;;;8.57;;
6249;SDS011;3158;52.148;11.568;2022-11-15T20:57:38;13.43;;;7.78;;
6249;SDS011;3158;52.148;11.568;2022-11-15T21:02:39;16.73;;;9.10;;
6249;SDS011;3158;52.148;11.568;2022-11-15T21:07:40;13.45;;;8.75;;
6249;SDS011;3158;52.148;11.568;2022-11-15T21:12:41;16.65;;;9.13;;
6249;SDS011;3158;52.148;11.568;2022-11-15T21:17:42;13.75;;;8.57;;
6249;SDS011;3158;52.148;11.568;2022-11-15T21:22:43;13.48;;;8.57;;
6249;SDS011;3158;52.148;11.568;2022-11-15T21:27:44;11.23;;;8.40;;
6249;SDS011;3158;52.148;11.568;2022-11-15T21:32:46;11.75;;;8.23;;
6249;SDS011;3158;52.148;11.568;2022-11-15T21:37:47;12.00;;;8.13;;
6249;SDS011;3158;52.148;11.568;2022-11-15T21:42:48;16.20;;;8.85;;
6249;SDS011;3158;52.148;11.568;2022-11-15T21:47:49;10.98;;;7.45;;
6249;SDS011;3158;52.148;11.568;2022-11-15T21:52:51;12.07;;;7.38;;
6249;SDS011;3158;52.148;11.568;2022-11-15T21:57:52;15.05;;;8.18;;
6249;SDS011;3158;52.148;11.568;2022-11-15T22:02:53;12.27;;;7.93;;
6249;SDS011;3158;52.148;11.568;2022-11-15T22:07:54;13.60;;;8.48;;
6249;SDS011;3158;52.148;11.568;2022-11-15T22:12:55;13.48;;;7.75;;
6249;SDS011;3158;52.148;11.568;2022-11-15T22:17:56;15.77;;;8.90;;
6249;SDS011;3158;52.148;11.568;2022-11-15T22:22:58;13.60;;;8.23;;
6249;SDS011;3158;52.148;11.568;2022-11-15T22:28:00;19.42;;;8.98;;
6249;SDS011;3158;52.148;11.568;2022-11-15T22:33:01;14.02;;;8.02;;
6249;SDS011;3158;52.148;11.568;2022-11-15T22:38:04;11.32;;;9.02;;
6249;SDS011;3158;52.148;11.568;2022-11-15T22:43:05;12.30;;;8.25;;
6249;SDS011;3158;52.148;11.568;2022-11-15T22:48:06;11.82;;;8.55;;
6249;SDS011;3158;52.148;11.568;2022-11-15T22:53:08;15.70;;;8.63;;
6249;SDS011;3158;52.148;11.568;2022-11-15T22:58:09;12.13;;;7.70;;
6249;SDS011;3158;52.148;11.568;2022-11-15T23:03:10;10.68;;;7.55;;
6249;SDS011;3158;52.148;11.568;2022-11-15T23:08:12;13.23;;;8.18;;
6249;SDS011;3158;52.148;11.568;2022-11-15T23:13:13;12.32;;;8.13;;
6249;SDS011;3158;52.148;11.568;2022-11-15T23:18:18;13.05;;;9.07;;
6249;SDS011;3158;52.148;11.568;2022-11-15T23:23:19;15.50;;;8.77;;
6249;SDS011;3158;52.148;11.568;2022-11-15T23:28:20;15.60;;;9.00;;
6249;SDS011;3158;52.148;11.568;2022-11-15T23:33:22;13.77;;;8.68;;
6249;SDS011;3158;52.148;11.568;2022-11-15T23:38:42;18.70;;;8.75;;
6249;SDS011;3158;52.148;11.568;2022-11-15T23:43:43;9.77;;;7.70;;
6249;SDS011;3158;52.148;11.568;2022-11-15T23:48:44;13.98;;;8.52;;
6249;SDS011;3158;52.148;11.568;2022-11-15T23:53:45;15.57;;;7.60;;
6249;SDS011;3158;52.148;11.568;2022-11-15T23:58:47;11.23;;;7.28;;
